createdAt,value
2022-09-13T00:00:53.697Z,100816.63
2022-09-13T00:03:51.015Z,100813.31
2022-09-13T00:06:47.812Z,100808.38
2022-09-13T00:09:45.344Z,100807.19
2022-09-13T00:12:42.336Z,100803.88
2022-09-13T00:15:44.152Z,100796.97
2022-09-13T00:18:41.128Z,100787.06
2022-09-13T00:21:37.856Z,100784.22
2022-09-13T00:24:36.117Z,100781.38
2022-09-13T00:27:34.021Z,100771.97
2022-09-13T00:30:31.407Z,100764.09
2022-09-13T00:33:28.140Z,100767.00
2022-09-13T00:36:25.279Z,100763.63
2022-09-13T00:39:23.200Z,100768.88
2022-09-13T00:42:25.702Z,100758.66
2022-09-13T00:45:23.397Z,100753.81
2022-09-13T00:48:23.165Z,100760.69
2022-09-13T00:51:20.127Z,100768.09
2022-09-13T00:54:17.299Z,100771.16
2022-09-13T00:57:14.208Z,100759.72
2022-09-13T01:00:16.803Z,100776.78
2022-09-13T01:03:15.167Z,100776.41
2022-09-13T01:06:22.844Z,100784.78
2022-09-13T01:09:20.004Z,100791.09
2022-09-13T01:12:26.170Z,100782.53
2022-09-13T01:15:24.467Z,100776.97
2022-09-13T01:18:21.358Z,100769.13
2022-09-13T01:21:39.624Z,100779.28
2022-09-13T01:24:46.079Z,100789.53
2022-09-13T01:27:59.729Z,100789.53
2022-09-13T01:30:59.883Z,100790.09
2022-09-13T01:34:20.025Z,100788.47
2022-09-13T01:37:51.046Z,100782.81
2022-09-13T01:41:06.492Z,100785.34
2022-09-13T01:44:36.624Z,100780.44
2022-09-13T01:47:45.794Z,100774.72
2022-09-13T01:50:45.595Z,100764.91
2022-09-13T01:54:07.212Z,100750.88
2022-09-13T01:57:17.313Z,100754.91
2022-09-13T02:00:15.517Z,100742.38
2022-09-13T02:03:15.849Z,100712.91
2022-09-13T02:06:16.009Z,100715.94
2022-09-13T02:09:20.699Z,100704.97
2022-09-13T02:12:20.666Z,100705.75
2022-09-13T02:15:27.291Z,100706.47
2022-09-13T02:18:25.903Z,100707.53
2022-09-13T02:21:29.274Z,100696.38
2022-09-13T02:24:37.837Z,100692.78
2022-09-13T02:27:35.539Z,100692.09
2022-09-13T02:30:34.284Z,100697.09
2022-09-13T02:33:33.805Z,100690.91
2022-09-13T02:36:32.976Z,100700.31
2022-09-13T02:39:30.239Z,100702.72
2022-09-13T02:42:36.467Z,100699.72
2022-09-13T02:45:41.299Z,100699.44
2022-09-13T02:49:17.011Z,100692.84
2022-09-13T02:52:24.241Z,100693.59
2022-09-13T02:55:44.438Z,100691.25
2022-09-13T02:59:08.612Z,100696.16
2022-09-13T03:02:11.569Z,100694.56
2022-09-13T03:05:09.899Z,100697.34
2022-09-13T03:08:10.311Z,100687.41
2022-09-13T03:11:39.583Z,100685.59
2022-09-13T03:15:03.840Z,100696.47
2022-09-13T03:18:25.395Z,100696.78
2022-09-13T03:21:43.812Z,100690.72
2022-09-13T03:25:03.998Z,100698.97
2022-09-13T03:28:42.631Z,100695.72
2022-09-13T03:31:49.761Z,100707.94
2022-09-13T03:34:59.765Z,100711.63
2022-09-13T03:38:37.031Z,100703.91
2022-09-13T03:41:36.973Z,100700.13
2022-09-13T03:44:34.417Z,100679.72
2022-09-13T03:47:32.683Z,100689.59
2022-09-13T03:50:30.334Z,100683.53
2022-09-13T03:53:28.106Z,100677.59
2022-09-13T03:56:25.190Z,100676.00
2022-09-13T03:59:22.515Z,100689.03
2022-09-13T04:02:19.562Z,100683.31
2022-09-13T04:05:16.163Z,100682.91
2022-09-13T04:08:13.623Z,100689.28
2022-09-13T04:11:10.494Z,100691.59
2022-09-13T04:14:07.337Z,100683.69
2022-09-13T04:17:04.459Z,100686.97
2022-09-13T04:20:01.426Z,100690.16
2022-09-13T04:22:58.062Z,100692.53
2022-09-13T04:25:55.497Z,100694.13
2022-09-13T04:28:56.027Z,100694.94
2022-09-13T04:31:53.985Z,100695.72
2022-09-13T04:34:51.318Z,100696.50
2022-09-13T04:37:48.150Z,100697.38
2022-09-13T04:40:45.557Z,100707.09
2022-09-13T04:43:42.456Z,100701.38
2022-09-13T04:46:39.460Z,100703.09
2022-09-13T04:49:36.425Z,100710.91
2022-09-13T04:52:33.745Z,100701.59
2022-09-13T04:55:31.339Z,100706.56
2022-09-13T04:58:28.128Z,100712.16
2022-09-13T05:01:27.834Z,100707.25
2022-09-13T05:04:25.033Z,100714.97
2022-09-13T05:07:22.722Z,100696.44
2022-09-13T05:10:20.523Z,100692.47
2022-09-13T05:13:17.206Z,100681.66
2022-09-13T05:16:14.448Z,100690.25
2022-09-13T05:19:12.012Z,100693.06
2022-09-13T05:22:09.476Z,100689.31
2022-09-13T05:25:06.880Z,100680.00
2022-09-13T05:28:04.258Z,100699.66
2022-09-13T05:31:05.740Z,100698.66
2022-09-13T05:34:07.428Z,100705.38
2022-09-13T05:37:04.565Z,100708.75
2022-09-13T05:40:17.570Z,100703.56
2022-09-13T05:43:14.291Z,100701.63
2022-09-13T05:46:13.706Z,100704.22
2022-09-13T05:49:12.560Z,100704.66
2022-09-13T05:52:09.595Z,100695.16
2022-09-13T05:55:06.381Z,100692.66
2022-09-13T05:58:03.472Z,100691.78
2022-09-13T06:01:00.502Z,100697.03
2022-09-13T06:03:58.572Z,100687.16
2022-09-13T06:06:55.323Z,100703.88
2022-09-13T06:09:53.246Z,100696.91
2022-09-13T06:12:50.990Z,100703.53
2022-09-13T06:15:48.536Z,100708.03
2022-09-13T06:18:45.557Z,100708.44
2022-09-13T06:21:42.369Z,100704.34
2022-09-13T06:24:39.560Z,100707.97
2022-09-13T06:27:36.335Z,100713.72
2022-09-13T06:30:33.751Z,100716.16
2022-09-13T06:33:31.209Z,100708.00
2022-09-13T06:36:28.211Z,100712.13
2022-09-13T06:39:25.619Z,100717.84
2022-09-13T06:42:22.722Z,100712.53
2022-09-13T06:45:21.752Z,100711.31
2022-09-13T06:48:19.457Z,100717.00
2022-09-13T06:51:18.749Z,100711.66
2022-09-13T06:54:16.271Z,100710.91
2022-09-13T06:57:13.336Z,100714.59
2022-09-13T07:00:13.134Z,100711.53
2022-09-13T07:03:10.443Z,100722.16
2022-09-13T07:06:12.509Z,100720.56
2022-09-13T07:09:12.014Z,100715.22
2022-09-13T07:12:09.678Z,100718.50
2022-09-13T07:15:06.762Z,100725.47
2022-09-13T07:18:04.482Z,100735.69
2022-09-13T07:21:08.874Z,100729.09
2022-09-13T07:24:06.664Z,100723.00
2022-09-13T07:27:03.731Z,100722.56
2022-09-13T07:30:00.420Z,100734.44
2022-09-13T07:32:57.504Z,100728.72
2022-09-13T07:35:57.816Z,100738.94
2022-09-13T07:38:55.698Z,100729.53
2022-09-13T07:41:53.691Z,100736.97
2022-09-13T07:44:51.345Z,100741.03
2022-09-13T07:47:49.444Z,100745.91
2022-09-13T07:50:57.435Z,100749.16
2022-09-13T07:53:59.234Z,100747.53
2022-09-13T07:56:56.575Z,100739.44
2022-09-13T07:59:53.426Z,100749.19
2022-09-13T08:02:50.694Z,100741.78
2022-09-13T08:05:47.663Z,100745.44
2022-09-13T08:08:44.794Z,100760.25
2022-09-13T08:11:43.325Z,100758.09
2022-09-13T08:14:40.329Z,100749.03
2022-09-13T08:17:37.321Z,100735.50
2022-09-13T08:20:38.638Z,100749.00
2022-09-13T08:23:35.820Z,100744.50
2022-09-13T08:26:33.243Z,100763.69
2022-09-13T08:29:30.423Z,100744.22
2022-09-13T08:32:27.728Z,100760.56
2022-09-13T08:35:24.312Z,100759.38
2022-09-13T08:38:23.097Z,100753.13
2022-09-13T08:41:45.007Z,100750.66
2022-09-13T08:44:46.876Z,100749.00
2022-09-13T08:47:47.883Z,100755.19
2022-09-13T08:50:45.168Z,100758.88
2022-09-13T08:53:47.427Z,100755.56
2022-09-13T08:57:06.390Z,100764.09
2022-09-13T09:00:24.590Z,100761.94
2022-09-13T09:03:33.159Z,100756.94
2022-09-13T09:06:30.427Z,100757.78
2022-09-13T09:09:27.234Z,100758.19
2022-09-13T09:12:30.370Z,100758.25
2022-09-13T09:15:37.729Z,100760.81
2022-09-13T09:18:40.458Z,100760.00
2022-09-13T09:21:37.378Z,100762.09
2022-09-13T09:24:36.415Z,100757.16
2022-09-13T09:27:33.910Z,100761.22
2022-09-13T09:30:39.294Z,100755.41
2022-09-13T09:33:50.112Z,100758.56
2022-09-13T09:37:00.126Z,100753.41
2022-09-13T09:40:08.183Z,100755.88
2022-09-13T09:43:13.437Z,100764.53
2022-09-13T09:46:10.562Z,100766.63
2022-09-13T09:49:52.336Z,100779.31
2022-09-13T09:52:56.724Z,100770.84
2022-09-13T09:56:03.864Z,100771.19
2022-09-13T09:59:00.638Z,100767.00
2022-09-13T10:01:58.048Z,100773.91
2022-09-13T10:04:59.051Z,100773.41
2022-09-13T10:08:05.520Z,100767.59
2022-09-13T10:11:02.808Z,100768.47
2022-09-13T10:14:03.575Z,100775.25
2022-09-13T10:17:19.060Z,100763.84
2022-09-13T10:20:21.143Z,100762.75
2022-09-13T10:23:20.167Z,100753.09
2022-09-13T10:26:18.189Z,100758.66
2022-09-13T10:29:15.778Z,100756.63
2022-09-13T10:32:13.737Z,100765.13
2022-09-13T10:35:16.498Z,100747.56
2022-09-13T10:38:26.103Z,100758.88
2022-09-13T10:41:24.760Z,100764.13
2022-09-13T10:44:36.530Z,100765.56
2022-09-13T10:47:48.062Z,100763.66
2022-09-13T10:51:08.107Z,100756.16
2022-09-13T10:54:23.890Z,100746.41
2022-09-13T10:57:47.779Z,100743.34
2022-09-13T11:00:44.820Z,100745.69
2022-09-13T11:04:22.672Z,100736.69
2022-09-13T11:07:50.409Z,100743.22
2022-09-13T11:10:56.150Z,100736.94
2022-09-13T11:14:06.032Z,100725.91
2022-09-13T11:17:09.687Z,100729.91
2022-09-13T11:20:39.458Z,100731.84
2022-09-13T11:23:58.192Z,100729.56
2022-09-13T11:27:01.303Z,100731.03
2022-09-13T11:29:58.532Z,100715.41
2022-09-13T11:33:17.075Z,100710.53
2022-09-13T11:36:20.879Z,100714.78
2022-09-13T11:39:36.437Z,100717.75
2022-09-13T11:42:43.541Z,100718.44
2022-09-13T11:46:14.775Z,100723.25
2022-09-13T11:49:33.463Z,100719.22
2022-09-13T11:52:44.750Z,100717.03
2022-09-13T11:55:54.840Z,100721.22
2022-09-13T11:59:15.952Z,100712.25
2022-09-13T12:02:27.530Z,100707.66
2022-09-13T12:05:26.867Z,100705.56
2022-09-13T12:08:36.876Z,100712.50
2022-09-13T12:11:35.109Z,100708.28
2022-09-13T12:14:47.684Z,100695.81
2022-09-13T12:17:50.187Z,100701.38
2022-09-13T12:20:55.673Z,100691.09
2022-09-13T12:24:02.137Z,100693.47
2022-09-13T12:27:01.456Z,100692.81
2022-09-13T12:30:06.901Z,100696.31
2022-09-13T12:33:05.784Z,100688.91
2022-09-13T12:36:21.076Z,100693.53
2022-09-13T12:39:27.375Z,100694.91
2022-09-13T12:42:39.878Z,100689.56
2022-09-13T12:45:42.873Z,100685.34
2022-09-13T12:49:17.131Z,100690.97
2022-09-13T12:52:37.951Z,100682.00
2022-09-13T12:55:47.666Z,100684.44
2022-09-13T12:58:56.904Z,100688.53
2022-09-13T13:01:54.066Z,100679.59
2022-09-13T13:04:57.595Z,100673.63
2022-09-13T13:08:29.914Z,100671.53
2022-09-13T13:11:27.679Z,100678.88
2022-09-13T13:14:46.169Z,100674.50
2022-09-13T13:17:46.718Z,100670.31
2022-09-13T13:20:52.437Z,100676.72
2022-09-13T13:24:11.082Z,100672.94
2022-09-13T13:27:35.763Z,100666.38
2022-09-13T13:30:41.778Z,100667.53
2022-09-13T13:33:53.175Z,100669.88
2022-09-13T13:36:53.489Z,100670.56
2022-09-13T13:40:23.173Z,100667.81
2022-09-13T13:43:32.067Z,100666.03
2022-09-13T13:46:32.373Z,100669.94
2022-09-13T13:49:35.488Z,100674.06
2022-09-13T13:52:37.760Z,100668.00
2022-09-13T13:55:46.930Z,100676.94
2022-09-13T13:58:50.971Z,100674.06
2022-09-13T14:01:50.694Z,100674.53
2022-09-13T14:05:27.894Z,100677.84
2022-09-13T14:08:30.308Z,100672.53
2022-09-13T14:11:46.687Z,100666.75
2022-09-13T14:14:44.052Z,100663.53
2022-09-13T14:18:03.055Z,100671.78
2022-09-13T14:21:04.842Z,100672.06
2022-09-13T14:24:23.510Z,100678.56
2022-09-13T14:27:34.274Z,100682.94
2022-09-13T14:30:34.447Z,100678.28
2022-09-13T14:33:37.354Z,100683.88
2022-09-13T14:36:36.191Z,100677.44
2022-09-13T14:39:33.907Z,100680.69
2022-09-13T14:42:47.380Z,100671.38
2022-09-13T14:45:45.837Z,100671.47
2022-09-13T14:48:51.921Z,100682.47
2022-09-13T14:52:00.601Z,100677.25
2022-09-13T14:54:59.753Z,100671.88
2022-09-13T14:58:02.544Z,100677.41
2022-09-13T15:01:02.727Z,100672.75
2022-09-13T15:04:00.265Z,100677.66
2022-09-13T15:07:10.220Z,100668.81
2022-09-13T15:10:32.197Z,100687.66
2022-09-13T15:13:29.762Z,100679.31
2022-09-13T15:16:29.730Z,100674.97
2022-09-13T15:19:31.960Z,100678.38
2022-09-13T15:22:30.769Z,100681.75
2022-09-13T15:25:28.509Z,100678.56
2022-09-13T15:28:30.485Z,100681.16
2022-09-13T15:31:29.036Z,100685.03
2022-09-13T15:34:27.662Z,100676.72
2022-09-13T15:37:36.423Z,100685.09
2022-09-13T15:40:42.630Z,100690.47
2022-09-13T15:43:39.772Z,100693.22
2022-09-13T15:46:52.435Z,100688.66
2022-09-13T15:49:50.985Z,100686.91
2022-09-13T15:52:47.638Z,100692.72
2022-09-13T15:55:51.324Z,100674.53
2022-09-13T15:58:49.377Z,100683.09
2022-09-13T16:01:48.238Z,100688.56
2022-09-13T16:04:46.204Z,100686.41
2022-09-13T16:07:45.459Z,100690.69
2022-09-13T16:10:43.304Z,100683.09
2022-09-13T16:13:40.739Z,100687.44
2022-09-13T16:16:37.773Z,100683.00
2022-09-13T16:19:37.787Z,100683.25
2022-09-13T16:22:35.347Z,100687.22
2022-09-13T16:25:32.914Z,100680.81
2022-09-13T16:28:29.639Z,100671.00
2022-09-13T16:31:26.849Z,100677.03
2022-09-13T16:34:23.918Z,100688.69
2022-09-13T16:37:21.198Z,100688.16
2022-09-13T16:40:19.198Z,100681.25
2022-09-13T16:43:15.953Z,100677.94
2022-09-13T16:46:13.654Z,100688.72
2022-09-13T16:49:11.303Z,100687.91
2022-09-13T16:52:09.622Z,100687.09
2022-09-13T16:55:07.488Z,100691.06
2022-09-13T16:58:04.713Z,100681.38
2022-09-13T17:01:04.442Z,100695.19
2022-09-13T17:04:02.081Z,100698.50
2022-09-13T17:06:58.844Z,100703.38
2022-09-13T17:09:56.887Z,100702.19
2022-09-13T17:12:53.822Z,100696.16
2022-09-13T17:15:53.680Z,100717.38
2022-09-13T17:18:54.205Z,100704.13
2022-09-13T17:21:51.254Z,100704.47
2022-09-13T17:24:48.225Z,100707.50
2022-09-13T17:27:45.736Z,100719.31
2022-09-13T17:30:43.524Z,100709.31
2022-09-13T17:33:41.201Z,100713.25
2022-09-13T17:36:40.230Z,100703.72
2022-09-13T17:39:37.272Z,100722.09
2022-09-13T17:42:34.375Z,100714.41
2022-09-13T17:45:32.140Z,100732.72
2022-09-13T17:48:29.389Z,100728.50
2022-09-13T17:51:31.907Z,100740.25
2022-09-13T17:54:28.956Z,100741.31
2022-09-13T17:57:26.044Z,100736.09
2022-09-13T18:00:23.163Z,100724.50
2022-09-13T18:03:19.824Z,100733.66
2022-09-13T18:06:17.123Z,100732.72
2022-09-13T18:09:14.316Z,100731.16
2022-09-13T18:12:11.841Z,100732.25
2022-09-13T18:15:09.309Z,100741.09
2022-09-13T18:18:06.312Z,100739.09
2022-09-13T18:21:03.316Z,100736.38
2022-09-13T18:24:03.784Z,100738.94
2022-09-13T18:27:03.551Z,100731.38
2022-09-13T18:30:03.419Z,100738.19
2022-09-13T18:33:01.158Z,100730.94
2022-09-13T18:36:02.059Z,100730.34
2022-09-13T18:38:59.246Z,100733.41
2022-09-13T18:41:55.923Z,100736.75
2022-09-13T18:44:52.991Z,100746.13
2022-09-13T18:47:50.090Z,100739.63
2022-09-13T18:50:47.236Z,100750.22
2022-09-13T18:53:44.858Z,100751.84
2022-09-13T18:56:41.846Z,100769.78
2022-09-13T18:59:38.993Z,100765.28
2022-09-13T19:02:47.746Z,100761.69
2022-09-13T19:05:54.067Z,100762.09
2022-09-13T19:08:51.382Z,100767.00
2022-09-13T19:11:53.385Z,100771.41
2022-09-13T19:14:51.365Z,100773.81
2022-09-13T19:17:49.401Z,100777.91
2022-09-13T19:20:47.419Z,100766.09
2022-09-13T19:23:58.952Z,100760.88
2022-09-13T19:26:58.484Z,100764.63
2022-09-13T19:29:56.558Z,100765.03
2022-09-13T19:32:54.373Z,100764.25
2022-09-13T19:35:51.342Z,100760.16
2022-09-13T19:38:53.692Z,100753.66
2022-09-13T19:41:52.291Z,100748.75
2022-09-13T19:44:50.395Z,100745.50
2022-09-13T19:51:06.933Z,100750.41
2022-09-13T19:54:05.441Z,100747.94
2022-09-13T19:57:03.636Z,100747.13
2022-09-13T20:00:01.367Z,100744.69
2022-09-13T20:03:05.368Z,100750.38
2022-09-13T20:06:08.188Z,100756.09
2022-09-13T20:09:05.371Z,100739.78
2022-09-13T20:12:02.591Z,100758.16
2022-09-13T20:15:00.111Z,100759.38
2022-09-13T20:17:57.221Z,100751.22
2022-09-13T20:20:57.685Z,100751.59
2022-09-13T20:23:58.392Z,100751.16
2022-09-13T20:26:55.274Z,100758.88
2022-09-13T20:29:53.335Z,100761.75
2022-09-13T20:32:54.597Z,100753.19
2022-09-13T20:35:52.502Z,100759.69
2022-09-13T20:38:51.345Z,100754.41
2022-09-13T20:41:49.922Z,100760.53
2022-09-13T20:44:47.193Z,100758.56
2022-09-13T20:47:45.229Z,100751.94
2022-09-13T20:50:43.081Z,100749.44
2022-09-13T20:53:40.374Z,100749.00
2022-09-13T20:56:37.476Z,100751.88
2022-09-13T20:59:34.203Z,100753.53
2022-09-13T21:02:31.525Z,100751.09
2022-09-13T21:05:29.387Z,100739.63
2022-09-13T21:08:41.715Z,100740.47
2022-09-13T21:11:39.535Z,100740.47
2022-09-13T21:14:37.341Z,100742.47
2022-09-13T21:17:34.484Z,100732.63
2022-09-13T21:20:34.075Z,100734.63
2022-09-13T21:23:34.212Z,100730.41
2022-09-13T21:26:31.695Z,100729.56
2022-09-13T21:29:29.128Z,100724.59
2022-09-13T21:32:26.181Z,100731.16
2022-09-13T21:35:23.366Z,100721.41
2022-09-13T21:38:20.365Z,100726.31
2022-09-13T21:41:17.963Z,100721.31
2022-09-13T21:44:16.027Z,100718.88
2022-09-13T21:47:13.138Z,100727.09
2022-09-13T21:50:10.319Z,100736.13
2022-09-13T21:53:07.479Z,100743.72
2022-09-13T21:56:08.693Z,100739.72
2022-09-13T21:59:08.324Z,100732.75
2022-09-13T22:02:05.039Z,100743.69
2022-09-13T22:05:02.670Z,100735.53
2022-09-13T22:07:59.812Z,100740.41
2022-09-13T22:10:57.801Z,100732.31
2022-09-13T22:13:56.230Z,100724.50
2022-09-13T22:16:53.378Z,100726.06
2022-09-13T22:19:51.315Z,100723.53
2022-09-13T22:22:48.290Z,100717.75
2022-09-13T22:25:45.168Z,100714.34
2022-09-13T22:28:42.662Z,100716.84
2022-09-13T22:31:41.145Z,100705.69
2022-09-13T22:34:37.968Z,100711.69
2022-09-13T22:37:36.648Z,100721.16
2022-09-13T22:40:34.149Z,100715.81
2022-09-13T22:43:31.333Z,100717.16
2022-09-13T22:46:32.131Z,100717.34
2022-09-13T22:49:29.022Z,100723.88
2022-09-13T22:52:26.397Z,100713.31
2022-09-13T22:55:23.637Z,100702.97
2022-09-13T22:58:21.285Z,100701.13
2022-09-13T23:01:18.879Z,100697.81
2022-09-13T23:04:16.288Z,100706.59
2022-09-13T23:07:13.436Z,100692.66
2022-09-13T23:10:10.146Z,100686.50
2022-09-13T23:13:07.295Z,100691.41
2022-09-13T23:16:05.620Z,100682.56
2022-09-13T23:19:03.354Z,100693.00
2022-09-13T23:22:00.573Z,100688.94
2022-09-13T23:24:57.824Z,100689.56
2022-09-13T23:27:55.171Z,100688.94
2022-09-13T23:30:52.151Z,100686.91
2022-09-13T23:33:51.306Z,100683.44
2022-09-13T23:36:48.175Z,100675.28
2022-09-13T23:39:45.339Z,100672.75
2022-09-13T23:42:42.696Z,100673.56
2022-09-13T23:45:40.204Z,100673.41
2022-09-13T23:48:37.085Z,100681.25
2022-09-13T23:51:34.557Z,100680.16
2022-09-13T23:54:31.261Z,100679.63
2022-09-13T23:57:28.382Z,100675.66
